Terminal Aerodrome Forecast
Issued by NWS Cleveland, OH

Home | Current Version | Previous Version | Text Only | Print | Product List | Glossary Off
Versions: 1 2 3 4 5 6 7 8 9 10 11 12 13 14 15 16 17

175
FTUS41 KCLE 272337
TAFCAK
TAF
KCAK 272337Z 2800/2824 26014KT P6SM BKN040
     FM280400 25012KT P6SM OVC025
     FM281600 19008KT P6SM BKN035=

USA.gov is the U.S. government's official web portal to all federal, state and local government web resources and services.